sensor_id;sensor_type;location;lat;lon;timestamp;pressure;altitude;pressure_sealevel;temperature;humidity
61359;BME280;47228;46.762;23.598;2023-03-16T00:01:25;96506.89;;;1.59;82.75
61359;BME280;47228;46.762;23.598;2023-03-16T00:03:53;96511.99;;;1.55;82.82
61359;BME280;47228;46.762;23.598;2023-03-16T00:06:21;96513.02;;;1.52;82.86
61359;BME280;47228;46.762;23.598;2023-03-16T00:08:52;96514.07;;;1.52;83.17
61359;BME280;47228;46.762;23.598;2023-03-16T00:11:25;96518.69;;;1.49;83.30
61359;BME280;47228;46.762;23.598;2023-03-16T00:13:53;96514.53;;;1.46;83.53
61359;BME280;47228;46.762;23.598;2023-03-16T00:16:21;96516.04;;;1.45;83.78
61359;BME280;47228;46.762;23.598;2023-03-16T00:18:49;96521.17;;;1.46;83.91
61359;BME280;47228;46.762;23.598;2023-03-16T00:21:17;96525.23;;;1.47;83.84
61359;BME280;47228;46.762;23.598;2023-03-16T00:23:45;96525.13;;;1.48;83.53
61359;BME280;47228;46.762;23.598;2023-03-16T00:26:13;96527.13;;;1.49;83.61
61359;BME280;47228;46.762;23.598;2023-03-16T00:28:41;96522.81;;;1.50;83.64
61359;BME280;47228;46.762;23.598;2023-03-16T00:31:10;96521.59;;;1.50;83.74
61359;BME280;47228;46.762;23.598;2023-03-16T00:33:39;96521.92;;;1.48;83.67
61359;BME280;47228;46.762;23.598;2023-03-16T00:36:09;96523.85;;;1.50;83.68
61359;BME280;47228;46.762;23.598;2023-03-16T00:38:40;96524.98;;;1.52;83.53
61359;BME280;47228;46.762;23.598;2023-03-16T00:41:13;96522.98;;;1.50;83.53
61359;BME280;47228;46.762;23.598;2023-03-16T00:43:42;96520.88;;;1.47;83.26
61359;BME280;47228;46.762;23.598;2023-03-16T00:46:14;96522.88;;;1.43;83.41
61359;BME280;47228;46.762;23.598;2023-03-16T00:48:45;96521.68;;;1.39;83.62
61359;BME280;47228;46.762;23.598;2023-03-16T00:51:15;96523.58;;;1.38;83.57
61359;BME280;47228;46.762;23.598;2023-03-16T00:53:45;96520.56;;;1.34;83.46
61359;BME280;47228;46.762;23.598;2023-03-16T00:56:14;96520.61;;;1.28;83.76
61359;BME280;47228;46.762;23.598;2023-03-16T00:58:42;96523.72;;;1.22;83.67
61359;BME280;47228;46.762;23.598;2023-03-16T01:01:14;96522.64;;;1.17;83.82
61359;BME280;47228;46.762;23.598;2023-03-16T01:03:43;96524.55;;;1.14;84.06
61359;BME280;47228;46.762;23.598;2023-03-16T01:06:13;96526.20;;;1.06;84.26
61359;BME280;47228;46.762;23.598;2023-03-16T01:08:42;96524.41;;;1.00;84.66
61359;BME280;47228;46.762;23.598;2023-03-16T01:11:15;96527.41;;;0.97;84.80
61359;BME280;47228;46.762;23.598;2023-03-16T01:13:44;96528.95;;;0.95;84.99
61359;BME280;47228;46.762;23.598;2023-03-16T01:16:16;96530.70;;;0.94;85.04
61359;BME280;47228;46.762;23.598;2023-03-16T01:18:46;96533.41;;;0.94;85.16
61359;BME280;47228;46.762;23.598;2023-03-16T01:21:14;96531.84;;;0.94;85.11
61359;BME280;47228;46.762;23.598;2023-03-16T01:23:42;96531.34;;;0.94;85.17
61359;BME280;47228;46.762;23.598;2023-03-16T01:26:10;96530.16;;;0.93;85.23
61359;BME280;47228;46.762;23.598;2023-03-16T01:28:38;96531.38;;;0.94;85.26
61359;BME280;47228;46.762;23.598;2023-03-16T01:31:09;96532.06;;;0.94;85.30
61359;BME280;47228;46.762;23.598;2023-03-16T01:33:37;96532.61;;;0.93;85.42
61359;BME280;47228;46.762;23.598;2023-03-16T01:36:23;96535.89;;;0.92;85.55
61359;BME280;47228;46.762;23.598;2023-03-16T01:38:51;96534.84;;;0.90;85.44
61359;BME280;47228;46.762;23.598;2023-03-16T01:41:20;96536.92;;;0.92;85.55
61359;BME280;47228;46.762;23.598;2023-03-16T01:43:49;96536.63;;;0.93;85.55
61359;BME280;47228;46.762;23.598;2023-03-16T01:46:22;96538.63;;;0.94;85.76
61359;BME280;47228;46.762;23.598;2023-03-16T01:49:01;96540.25;;;0.94;85.70
61359;BME280;47228;46.762;23.598;2023-03-16T01:54:27;96546.77;;;0.93;85.83
61359;BME280;47228;46.762;23.598;2023-03-16T01:59:50;96553.66;;;0.90;85.59
61359;BME280;47228;46.762;23.598;2023-03-16T02:02:22;96558.65;;;0.87;85.84
61359;BME280;47228;46.762;23.598;2023-03-16T02:05:07;96560.94;;;0.84;85.87
61359;BME280;47228;46.762;23.598;2023-03-16T02:07:41;96565.05;;;0.81;85.94
61359;BME280;47228;46.762;23.598;2023-03-16T02:10:11;96570.30;;;0.81;86.00
61359;BME280;47228;46.762;23.598;2023-03-16T02:12:41;96568.93;;;0.81;86.07
61359;BME280;47228;46.762;23.598;2023-03-16T02:15:11;96568.08;;;0.79;86.07
61359;BME280;47228;46.762;23.598;2023-03-16T02:17:42;96569.45;;;0.76;85.95
61359;BME280;47228;46.762;23.598;2023-03-16T02:23:06;96575.35;;;0.71;86.25
61359;BME280;47228;46.762;23.598;2023-03-16T02:25:39;96581.67;;;0.69;86.52
61359;BME280;47228;46.762;23.598;2023-03-16T02:28:13;96581.78;;;0.66;86.64
61359;BME280;47228;46.762;23.598;2023-03-16T02:30:42;96583.54;;;0.62;86.51
61359;BME280;47228;46.762;23.598;2023-03-16T02:33:10;96583.77;;;0.62;86.75
61359;BME280;47228;46.762;23.598;2023-03-16T02:35:39;96585.63;;;0.61;86.61
61359;BME280;47228;46.762;23.598;2023-03-16T02:38:07;96587.19;;;0.59;86.61
61359;BME280;47228;46.762;23.598;2023-03-16T02:40:36;96588.95;;;0.59;86.99
61359;BME280;47228;46.762;23.598;2023-03-16T02:43:12;96592.86;;;0.58;87.17
61359;BME280;47228;46.762;23.598;2023-03-16T02:45:46;96591.66;;;0.60;87.24
61359;BME280;47228;46.762;23.598;2023-03-16T02:48:20;96591.13;;;0.60;87.40
61359;BME280;47228;46.762;23.598;2023-03-16T02:50:52;96593.71;;;0.58;87.42
61359;BME280;47228;46.762;23.598;2023-03-16T02:53:21;96595.67;;;0.56;87.37
61359;BME280;47228;46.762;23.598;2023-03-16T02:55:49;96599.71;;;0.56;87.39
61359;BME280;47228;46.762;23.598;2023-03-16T02:58:17;96600.70;;;0.55;87.29
61359;BME280;47228;46.762;23.598;2023-03-16T03:00:45;96606.04;;;0.54;87.32
61359;BME280;47228;46.762;23.598;2023-03-16T03:03:13;96608.91;;;0.51;87.21
61359;BME280;47228;46.762;23.598;2023-03-16T03:05:41;96610.77;;;0.48;87.42
61359;BME280;47228;46.762;23.598;2023-03-16T03:08:09;96609.55;;;0.47;87.40
61359;BME280;47228;46.762;23.598;2023-03-16T03:10:38;96613.66;;;0.46;87.50
61359;BME280;47228;46.762;23.598;2023-03-16T03:13:06;96614.28;;;0.46;87.51
61359;BME280;47228;46.762;23.598;2023-03-16T03:15:34;96616.42;;;0.47;87.49
61359;BME280;47228;46.762;23.598;2023-03-16T03:18:02;96618.11;;;0.48;87.46
61359;BME280;47228;46.762;23.598;2023-03-16T03:20:31;96619.66;;;0.48;87.20
61359;BME280;47228;46.762;23.598;2023-03-16T03:23:00;96620.05;;;0.48;87.25
61359;BME280;47228;46.762;23.598;2023-03-16T03:25:30;96624.45;;;0.47;87.26
61359;BME280;47228;46.762;23.598;2023-03-16T03:28:03;96628.56;;;0.45;87.36
61359;BME280;47228;46.762;23.598;2023-03-16T03:30:32;96632.16;;;0.40;87.38
61359;BME280;47228;46.762;23.598;2023-03-16T03:33:00;96634.27;;;0.36;87.38
61359;BME280;47228;46.762;23.598;2023-03-16T03:35:28;96642.34;;;0.32;87.25
61359;BME280;47228;46.762;23.598;2023-03-16T03:37:56;96641.23;;;0.31;87.45
61359;BME280;47228;46.762;23.598;2023-03-16T03:40:24;96644.36;;;0.31;87.64
61359;BME280;47228;46.762;23.598;2023-03-16T03:42:52;96650.83;;;0.31;87.81
61359;BME280;47228;46.762;23.598;2023-03-16T03:45:20;96652.67;;;0.32;87.81
61359;BME280;47228;46.762;23.598;2023-03-16T03:47:49;96660.45;;;0.34;87.86
61359;BME280;47228;46.762;23.598;2023-03-16T03:50:17;96663.38;;;0.32;87.66
61359;BME280;47228;46.762;23.598;2023-03-16T03:52:45;96661.47;;;0.31;87.54
61359;BME280;47228;46.762;23.598;2023-03-16T03:55:13;96662.31;;;0.29;87.78
61359;BME280;47228;46.762;23.598;2023-03-16T03:57:41;96666.77;;;0.28;87.76
61359;BME280;47228;46.762;23.598;2023-03-16T04:00:10;96662.73;;;0.27;87.67
61359;BME280;47228;46.762;23.598;2023-03-16T04:02:42;96665.66;;;0.27;87.88
61359;BME280;47228;46.762;23.598;2023-03-16T04:05:12;96672.16;;;0.28;87.89
61359;BME280;47228;46.762;23.598;2023-03-16T04:07:40;96676.13;;;0.29;87.82
61359;BME280;47228;46.762;23.598;2023-03-16T04:10:09;96678.83;;;0.28;87.84
61359;BME280;47228;46.762;23.598;2023-03-16T04:12:37;96681.79;;;0.26;87.81
61359;BME280;47228;46.762;23.598;2023-03-16T04:15:05;96685.63;;;0.24;87.67
61359;BME280;47228;46.762;23.598;2023-03-16T04:17:34;96689.44;;;0.23;87.73
61359;BME280;47228;46.762;23.598;2023-03-16T04:20:03;96696.75;;;0.21;87.89
61359;BME280;47228;46.762;23.598;2023-03-16T04:22:41;96696.49;;;0.22;87.95
61359;BME280;47228;46.762;23.598;2023-03-16T04:25:14;96705.32;;;0.22;88.09
61359;BME280;47228;46.762;23.598;2023-03-16T04:27:43;96706.69;;;0.22;87.96
61359;BME280;47228;46.762;23.598;2023-03-16T04:30:14;96709.59;;;0.23;88.16
61359;BME280;47228;46.762;23.598;2023-03-16T04:32:42;96709.45;;;0.23;88.03
61359;BME280;47228;46.762;23.598;2023-03-16T04:35:10;96716.42;;;0.24;88.30
61359;BME280;47228;46.762;23.598;2023-03-16T04:37:38;96718.14;;;0.23;87.96
61359;BME280;47228;46.762;23.598;2023-03-16T04:40:07;96722.11;;;0.21;87.78
61359;BME280;47228;46.762;23.598;2023-03-16T04:42:43;96725.09;;;0.23;88.07
61359;BME280;47228;46.762;23.598;2023-03-16T04:45:14;96728.98;;;0.19;87.90
61359;BME280;47228;46.762;23.598;2023-03-16T04:47:42;96731.59;;;0.17;88.01
61359;BME280;47228;46.762;23.598;2023-03-16T04:50:11;96732.63;;;0.16;87.95
61359;BME280;47228;46.762;23.598;2023-03-16T04:52:39;96739.40;;;0.14;87.85
61359;BME280;47228;46.762;23.598;2023-03-16T04:55:08;96741.77;;;0.12;88.18
61359;BME280;47228;46.762;23.598;2023-03-16T04:57:37;96744.21;;;0.11;88.12
61359;BME280;47228;46.762;23.598;2023-03-16T05:00:06;96744.30;;;0.10;88.20
61359;BME280;47228;46.762;23.598;2023-03-16T05:02:39;96746.31;;;0.09;88.32
61359;BME280;47228;46.762;23.598;2023-03-16T05:05:07;96747.95;;;0.06;88.26
61359;BME280;47228;46.762;23.598;2023-03-16T05:07:35;96752.36;;;0.06;88.42
61359;BME280;47228;46.762;23.598;2023-03-16T05:10:04;96755.66;;;0.06;88.53
61359;BME280;47228;46.762;23.598;2023-03-16T05:12:32;96764.13;;;0.06;88.77
61359;BME280;47228;46.762;23.598;2023-03-16T05:15:00;96768.84;;;0.05;88.57
61359;BME280;47228;46.762;23.598;2023-03-16T05:17:28;96773.64;;;0.05;88.59
61359;BME280;47228;46.762;23.598;2023-03-16T05:19:56;96781.89;;;0.03;88.50
61359;BME280;47228;46.762;23.598;2023-03-16T05:22:24;96784.27;;;0.04;88.44
61359;BME280;47228;46.762;23.598;2023-03-16T05:24:52;96790.16;;;0.04;88.77
61359;BME280;47228;46.762;23.598;2023-03-16T05:27:20;96795.55;;;0.04;88.83
61359;BME280;47228;46.762;23.598;2023-03-16T05:29:48;96800.52;;;0.03;88.85
61359;BME280;47228;46.762;23.598;2023-03-16T05:32:16;96800.95;;;0.02;88.99
61359;BME280;47228;46.762;23.598;2023-03-16T05:34:44;96802.10;;;0.05;89.00
61359;BME280;47228;46.762;23.598;2023-03-16T05:37:12;96803.41;;;0.06;88.98
61359;BME280;47228;46.762;23.598;2023-03-16T05:39:40;96802.98;;;0.07;88.96
61359;BME280;47228;46.762;23.598;2023-03-16T05:42:08;96799.73;;;0.06;88.70
61359;BME280;47228;46.762;23.598;2023-03-16T05:44:37;96794.97;;;0.06;89.15
61359;BME280;47228;46.762;23.598;2023-03-16T05:47:05;96799.04;;;0.04;89.04
61359;BME280;47228;46.762;23.598;2023-03-16T05:49:33;96801.01;;;0.02;88.86
61359;BME280;47228;46.762;23.598;2023-03-16T05:52:01;96806.70;;;0.02;89.34
61359;BME280;47228;46.762;23.598;2023-03-16T05:54:29;96810.44;;;0.01;89.13
61359;BME280;47228;46.762;23.598;2023-03-16T05:56:57;96815.20;;;0.01;89.31
61359;BME280;47228;46.762;23.598;2023-03-16T05:59:25;96818.48;;;-0.01;89.28
61359;BME280;47228;46.762;23.598;2023-03-16T06:01:53;96820.52;;;-0.02;89.19
61359;BME280;47228;46.762;23.598;2023-03-16T06:04:22;96827.14;;;-0.01;89.53
61359;BME280;47228;46.762;23.598;2023-03-16T06:06:50;96830.62;;;0.03;89.55
61359;BME280;47228;46.762;23.598;2023-03-16T06:09:18;96838.86;;;0.08;89.55
61359;BME280;47228;46.762;23.598;2023-03-16T06:11:46;96841.21;;;0.12;89.45
61359;BME280;47228;46.762;23.598;2023-03-16T06:14:13;96845.51;;;0.15;89.38
61359;BME280;47228;46.762;23.598;2023-03-16T06:16:41;96847.97;;;0.15;88.99
61359;BME280;47228;46.762;23.598;2023-03-16T06:19:09;96850.65;;;0.16;88.96
61359;BME280;47228;46.762;23.598;2023-03-16T06:21:37;96852.69;;;0.17;88.99
61359;BME280;47228;46.762;23.598;2023-03-16T06:24:05;96856.87;;;0.17;88.93
61359;BME280;47228;46.762;23.598;2023-03-16T06:26:35;96862.13;;;0.14;88.87
61359;BME280;47228;46.762;23.598;2023-03-16T06:29:04;96866.51;;;0.16;89.18
61359;BME280;47228;46.762;23.598;2023-03-16T06:31:32;96867.41;;;0.17;89.04
61359;BME280;47228;46.762;23.598;2023-03-16T06:34:01;96874.40;;;0.19;89.04
61359;BME280;47228;46.762;23.598;2023-03-16T06:36:29;96878.57;;;0.21;88.89
61359;BME280;47228;46.762;23.598;2023-03-16T06:38:57;96880.90;;;0.22;88.87
61359;BME280;47228;46.762;23.598;2023-03-16T06:41:25;96889.85;;;0.23;88.98
61359;BME280;47228;46.762;23.598;2023-03-16T06:43:53;96895.44;;;0.23;88.84
61359;BME280;47228;46.762;23.598;2023-03-16T06:46:21;96900.55;;;0.24;88.94
61359;BME280;47228;46.762;23.598;2023-03-16T06:48:50;96906.19;;;0.23;88.91
61359;BME280;47228;46.762;23.598;2023-03-16T06:51:18;96910.73;;;0.23;88.98
61359;BME280;47228;46.762;23.598;2023-03-16T06:53:46;96913.38;;;0.23;89.08
61359;BME280;47228;46.762;23.598;2023-03-16T06:56:14;96919.16;;;0.24;88.98
61359;BME280;47228;46.762;23.598;2023-03-16T06:58:42;96918.77;;;0.27;89.01
61359;BME280;47228;46.762;23.598;2023-03-16T07:01:09;96921.85;;;0.29;89.26
61359;BME280;47228;46.762;23.598;2023-03-16T07:03:39;96926.63;;;0.34;89.24
61359;BME280;47228;46.762;23.598;2023-03-16T07:06:08;96930.98;;;0.37;89.27
61359;BME280;47228;46.762;23.598;2023-03-16T07:08:36;96929.31;;;0.40;88.95
61359;BME280;47228;46.762;23.598;2023-03-16T07:11:04;96935.61;;;0.44;88.93
61359;BME280;47228;46.762;23.598;2023-03-16T07:13:33;96939.10;;;0.47;88.95
61359;BME280;47228;46.762;23.598;2023-03-16T07:16:02;96941.56;;;0.48;89.15
61359;BME280;47228;46.762;23.598;2023-03-16T07:18:31;96942.39;;;0.49;88.91
61359;BME280;47228;46.762;23.598;2023-03-16T07:20:59;96944.67;;;0.49;88.64
61359;BME280;47228;46.762;23.598;2023-03-16T07:23:27;96948.05;;;0.50;88.72
61359;BME280;47228;46.762;23.598;2023-03-16T07:25:55;96951.48;;;0.51;88.62
61359;BME280;47228;46.762;23.598;2023-03-16T07:28:23;96952.48;;;0.53;88.84
61359;BME280;47228;46.762;23.598;2023-03-16T07:30:51;96957.10;;;0.54;88.89
61359;BME280;47228;46.762;23.598;2023-03-16T07:33:32;96960.83;;;0.55;88.75
61359;BME280;47228;46.762;23.598;2023-03-16T07:36:00;96961.55;;;0.55;88.66
61359;BME280;47228;46.762;23.598;2023-03-16T07:38:32;96961.23;;;0.53;88.60
61359;BME280;47228;46.762;23.598;2023-03-16T07:41:00;96963.01;;;0.50;88.88
61359;BME280;47228;46.762;23.598;2023-03-16T07:43:28;96967.30;;;0.49;89.13
61359;BME280;47228;46.762;23.598;2023-03-16T07:45:56;96974.48;;;0.50;89.12
61359;BME280;47228;46.762;23.598;2023-03-16T07:48:25;96977.07;;;0.51;88.92
61359;BME280;47228;46.762;23.598;2023-03-16T07:50:53;96981.79;;;0.53;89.04
61359;BME280;47228;46.762;23.598;2023-03-16T07:53:21;96982.12;;;0.53;89.03
61359;BME280;47228;46.762;23.598;2023-03-16T07:55:49;96989.58;;;0.55;89.18
61359;BME280;47228;46.762;23.598;2023-03-16T07:58:17;96992.95;;;0.56;88.98
61359;BME280;47228;46.762;23.598;2023-03-16T08:00:45;96994.69;;;0.56;89.02
61359;BME280;47228;46.762;23.598;2023-03-16T08:03:13;96993.41;;;0.55;88.93
61359;BME280;47228;46.762;23.598;2023-03-16T08:05:41;96997.35;;;0.52;88.97
61359;BME280;47228;46.762;23.598;2023-03-16T08:08:09;97001.55;;;0.50;89.15
61359;BME280;47228;46.762;23.598;2023-03-16T08:10:37;97005.47;;;0.49;89.11
61359;BME280;47228;46.762;23.598;2023-03-16T08:13:05;97009.85;;;0.50;89.15
61359;BME280;47228;46.762;23.598;2023-03-16T08:15:33;97013.37;;;0.56;89.24
61359;BME280;47228;46.762;23.598;2023-03-16T08:18:01;97013.48;;;0.60;89.47
61359;BME280;47228;46.762;23.598;2023-03-16T08:20:29;97013.71;;;0.61;89.14
61359;BME280;47228;46.762;23.598;2023-03-16T08:22:58;97013.02;;;0.59;88.81
61359;BME280;47228;46.762;23.598;2023-03-16T08:25:26;97014.58;;;0.59;88.94
61359;BME280;47228;46.762;23.598;2023-03-16T08:27:54;97020.56;;;0.62;89.17
61359;BME280;47228;46.762;23.598;2023-03-16T08:30:25;97024.95;;;0.64;89.03
61359;BME280;47228;46.762;23.598;2023-03-16T08:32:54;97021.33;;;0.63;88.73
61359;BME280;47228;46.762;23.598;2023-03-16T08:35:24;97023.41;;;0.64;88.84
61359;BME280;47228;46.762;23.598;2023-03-16T08:37:52;97031.09;;;0.63;88.85
61359;BME280;47228;46.762;23.598;2023-03-16T08:40:21;97032.42;;;0.62;88.89
61359;BME280;47228;46.762;23.598;2023-03-16T08:42:49;97034.73;;;0.63;88.81
61359;BME280;47228;46.762;23.598;2023-03-16T08:45:17;97036.48;;;0.66;88.88
61359;BME280;47228;46.762;23.598;2023-03-16T08:47:46;97037.60;;;0.69;89.08
61359;BME280;47228;46.762;23.598;2023-03-16T08:50:14;97038.73;;;0.71;88.94
61359;BME280;47228;46.762;23.598;2023-03-16T08:52:42;97041.87;;;0.76;89.14
61359;BME280;47228;46.762;23.598;2023-03-16T08:55:13;97050.11;;;0.80;88.83
61359;BME280;47228;46.762;23.598;2023-03-16T08:57:42;97050.63;;;0.83;89.09
61359;BME280;47228;46.762;23.598;2023-03-16T09:00:12;97053.61;;;0.85;88.52
61359;BME280;47228;46.762;23.598;2023-03-16T09:02:42;97054.90;;;0.86;88.64
61359;BME280;47228;46.762;23.598;2023-03-16T09:05:12;97056.13;;;0.84;88.43
61359;BME280;47228;46.762;23.598;2023-03-16T09:07:41;97061.15;;;0.84;88.52
61359;BME280;47228;46.762;23.598;2023-03-16T09:10:10;97062.45;;;0.86;88.67
61359;BME280;47228;46.762;23.598;2023-03-16T09:12:43;97064.10;;;0.88;88.71
61359;BME280;47228;46.762;23.598;2023-03-16T09:15:12;97065.32;;;0.96;89.09
61359;BME280;47228;46.762;23.598;2023-03-16T09:17:41;97071.81;;;1.01;88.82
61359;BME280;47228;46.762;23.598;2023-03-16T09:20:14;97075.27;;;1.01;88.01
61359;BME280;47228;46.762;23.598;2023-03-16T09:22:56;97079.48;;;0.99;87.83
61359;BME280;47228;46.762;23.598;2023-03-16T09:25:25;97083.48;;;0.97;88.03
61359;BME280;47228;46.762;23.598;2023-03-16T09:27:53;97088.42;;;0.97;88.04
61359;BME280;47228;46.762;23.598;2023-03-16T09:30:22;97089.73;;;0.98;88.14
61359;BME280;47228;46.762;23.598;2023-03-16T09:32:50;97094.40;;;0.98;88.31
61359;BME280;47228;46.762;23.598;2023-03-16T09:35:18;97098.51;;;0.99;88.46
61359;BME280;47228;46.762;23.598;2023-03-16T09:37:46;97105.16;;;1.00;88.41
61359;BME280;47228;46.762;23.598;2023-03-16T09:40:34;97113.08;;;1.05;88.60
61359;BME280;47228;46.762;23.598;2023-03-16T09:45:51;97121.39;;;1.13;88.05
61359;BME280;47228;46.762;23.598;2023-03-16T09:48:26;97122.36;;;1.14;87.93
61359;BME280;47228;46.762;23.598;2023-03-16T09:50:57;97126.17;;;1.16;87.86
61359;BME280;47228;46.762;23.598;2023-03-16T09:53:34;97125.79;;;1.18;87.85
61359;BME280;47228;46.762;23.598;2023-03-16T09:56:15;97129.63;;;1.20;87.54
61359;BME280;47228;46.762;23.598;2023-03-16T09:58:46;97134.48;;;1.20;87.55
61359;BME280;47228;46.762;23.598;2023-03-16T10:01:39;97134.90;;;1.21;87.63
61359;BME280;47228;46.762;23.598;2023-03-16T10:04:29;97136.17;;;1.25;87.80
61359;BME280;47228;46.762;23.598;2023-03-16T10:12:58;97142.57;;;1.25;87.45
61359;BME280;47228;46.762;23.598;2023-03-16T10:15:30;97146.64;;;1.26;87.47
61359;BME280;47228;46.762;23.598;2023-03-16T10:18:15;97151.20;;;1.26;87.02
61359;BME280;47228;46.762;23.598;2023-03-16T10:20:45;97153.52;;;1.24;86.81
61359;BME280;47228;46.762;23.598;2023-03-16T10:23:23;97157.23;;;1.23;87.24
61359;BME280;47228;46.762;23.598;2023-03-16T10:25:53;97159.44;;;1.24;87.16
61359;BME280;47228;46.762;23.598;2023-03-16T10:28:23;97155.90;;;1.24;87.01
61359;BME280;47228;46.762;23.598;2023-03-16T10:30:54;97159.66;;;1.23;87.02
61359;BME280;47228;46.762;23.598;2023-03-16T10:33:33;97160.54;;;1.23;86.87
61359;BME280;47228;46.762;23.598;2023-03-16T10:36:13;97164.15;;;1.24;87.04
61359;BME280;47228;46.762;23.598;2023-03-16T10:38:49;97163.27;;;1.24;87.15
61359;BME280;47228;46.762;23.598;2023-03-16T10:43:55;97166.69;;;1.23;87.22
61359;BME280;47228;46.762;23.598;2023-03-16T10:46:25;97171.21;;;1.25;87.31
61359;BME280;47228;46.762;23.598;2023-03-16T10:48:59;97169.71;;;1.26;87.15
61359;BME280;47228;46.762;23.598;2023-03-16T10:51:31;97174.64;;;1.27;87.12
61359;BME280;47228;46.762;23.598;2023-03-16T10:54:13;97177.00;;;1.24;86.78
61359;BME280;47228;46.762;23.598;2023-03-16T10:56:43;97173.62;;;1.23;87.04
61359;BME280;47228;46.762;23.598;2023-03-16T10:59:33;97180.65;;;1.26;87.51
61359;BME280;47228;46.762;23.598;2023-03-16T11:02:15;97177.36;;;1.32;87.78
61359;BME280;47228;46.762;23.598;2023-03-16T11:04:43;97175.23;;;1.34;87.41
61359;BME280;47228;46.762;23.598;2023-03-16T11:07:17;97178.27;;;1.35;87.54
61359;BME280;47228;46.762;23.598;2023-03-16T11:09:47;97181.61;;;1.40;87.94
61359;BME280;47228;46.762;23.598;2023-03-16T11:12:25;97185.41;;;1.42;87.55
61359;BME280;47228;46.762;23.598;2023-03-16T11:14:53;97187.54;;;1.38;87.05
61359;BME280;47228;46.762;23.598;2023-03-16T11:17:55;97190.39;;;1.38;87.45
61359;BME280;47228;46.762;23.598;2023-03-16T11:20:26;97192.55;;;1.43;87.95
61359;BME280;47228;46.762;23.598;2023-03-16T11:22:55;97190.20;;;1.45;87.96
61359;BME280;47228;46.762;23.598;2023-03-16T11:25:28;97193.41;;;1.47;87.67
61359;BME280;47228;46.762;23.598;2023-03-16T11:30:45;97199.27;;;1.54;87.99
61359;BME280;47228;46.762;23.598;2023-03-16T11:33:16;97196.85;;;1.58;87.62
61359;BME280;47228;46.762;23.598;2023-03-16T11:36:01;97194.56;;;1.58;87.38
61359;BME280;47228;46.762;23.598;2023-03-16T11:38:45;97195.20;;;1.60;87.48
61359;BME280;47228;46.762;23.598;2023-03-16T11:41:37;97198.71;;;1.60;87.28
61359;BME280;47228;46.762;23.598;2023-03-16T11:46:55;97202.41;;;1.60;87.32
61359;BME280;47228;46.762;23.598;2023-03-16T11:49:38;97200.38;;;1.58;86.87
61359;BME280;47228;46.762;23.598;2023-03-16T11:55:15;97203.88;;;1.57;87.25
61359;BME280;47228;46.762;23.598;2023-03-16T12:03:32;97214.58;;;1.51;87.11
61359;BME280;47228;46.762;23.598;2023-03-16T12:11:40;97221.95;;;1.56;88.04
61359;BME280;47228;46.762;23.598;2023-03-16T12:14:18;97224.05;;;1.58;87.89
61359;BME280;47228;46.762;23.598;2023-03-16T12:17:12;97226.09;;;1.59;87.62
61359;BME280;47228;46.762;23.598;2023-03-16T12:20:22;97227.80;;;1.57;87.30
61359;BME280;47228;46.762;23.598;2023-03-16T12:23:11;97228.70;;;1.57;87.39
61359;BME280;47228;46.762;23.598;2023-03-16T12:25:44;97233.50;;;1.54;87.31
61359;BME280;47228;46.762;23.598;2023-03-16T12:28:25;97237.70;;;1.52;87.45
61359;BME280;47228;46.762;23.598;2023-03-16T12:30:59;97238.89;;;1.53;87.76
61359;BME280;47228;46.762;23.598;2023-03-16T12:38:47;97245.60;;;1.50;87.94
61359;BME280;47228;46.762;23.598;2023-03-16T12:41:34;97245.77;;;1.52;87.97
61359;BME280;47228;46.762;23.598;2023-03-16T12:44:17;97247.65;;;1.56;88.22
61359;BME280;47228;46.762;23.598;2023-03-16T12:49:24;97249.31;;;1.62;87.93
61359;BME280;47228;46.762;23.598;2023-03-16T12:52:05;97251.08;;;1.62;87.90
61359;BME280;47228;46.762;23.598;2023-03-16T12:54:33;97257.54;;;1.64;87.78
61359;BME280;47228;46.762;23.598;2023-03-16T12:57:06;97255.61;;;1.66;87.64
61359;BME280;47228;46.762;23.598;2023-03-16T12:59:40;97256.21;;;1.68;87.86
61359;BME280;47228;46.762;23.598;2023-03-16T13:02:18;97257.80;;;1.70;87.67
61359;BME280;47228;46.762;23.598;2023-03-16T13:04:56;97264.34;;;1.69;87.52
61359;BME280;47228;46.762;23.598;2023-03-16T13:07:28;97269.11;;;1.67;87.27
61359;BME280;47228;46.762;23.598;2023-03-16T13:10:08;97269.85;;;1.66;87.63
61359;BME280;47228;46.762;23.598;2023-03-16T13:12:42;97272.42;;;1.69;87.99
61359;BME280;47228;46.762;23.598;2023-03-16T13:17:46;97279.73;;;1.75;87.91
61359;BME280;47228;46.762;23.598;2023-03-16T13:20:31;97278.36;;;1.76;87.55
61359;BME280;47228;46.762;23.598;2023-03-16T13:23:22;97281.17;;;1.78;87.24
61359;BME280;47228;46.762;23.598;2023-03-16T13:26:04;97286.04;;;1.80;87.23
61359;BME280;47228;46.762;23.598;2023-03-16T13:28:37;97287.25;;;1.78;86.72
61359;BME280;47228;46.762;23.598;2023-03-16T13:33:49;97290.46;;;1.79;87.13
61359;BME280;47228;46.762;23.598;2023-03-16T13:36:20;97293.27;;;1.81;86.92
61359;BME280;47228;46.762;23.598;2023-03-16T13:39:18;97296.61;;;1.83;86.81
61359;BME280;47228;46.762;23.598;2023-03-16T13:41:58;97299.55;;;1.81;86.59
61359;BME280;47228;46.762;23.598;2023-03-16T13:44:28;97296.84;;;1.82;86.98
61359;BME280;47228;46.762;23.598;2023-03-16T13:47:01;97296.30;;;1.82;86.58
61359;BME280;47228;46.762;23.598;2023-03-16T13:49:30;97299.23;;;1.83;86.50
61359;BME280;47228;46.762;23.598;2023-03-16T13:52:01;97301.45;;;1.83;86.43
61359;BME280;47228;46.762;23.598;2023-03-16T13:54:30;97302.52;;;1.83;86.67
61359;BME280;47228;46.762;23.598;2023-03-16T13:57:01;97303.27;;;1.84;86.60
61359;BME280;47228;46.762;23.598;2023-03-16T13:59:30;97302.78;;;1.87;86.77
61359;BME280;47228;46.762;23.598;2023-03-16T14:02:00;97307.21;;;1.92;86.77
61359;BME280;47228;46.762;23.598;2023-03-16T14:04:30;97304.98;;;1.95;86.73
61359;BME280;47228;46.762;23.598;2023-03-16T14:07:00;97312.81;;;1.96;86.49
61359;BME280;47228;46.762;23.598;2023-03-16T14:09:32;97315.69;;;1.99;86.90
61359;BME280;47228;46.762;23.598;2023-03-16T14:12:01;97318.25;;;2.03;87.33
61359;BME280;47228;46.762;23.598;2023-03-16T14:14:36;97318.86;;;2.05;87.18